This is the latest recevied weather packets stored in our database for station/object IK2ILW-6. If no packets are shown the sender has not sent any weather packets the latest 1 day(s).
| Time | Temp. | Humidity | Pressure | Rain* | Wind** | Luminosity | Snow |
|---|---|---|---|---|---|---|---|
| 1777983085 | 3.33° C | 92% | 1013 hPa | 6.1 mm | 5.81 m/s, 252° | 104 W/m² | - |
| 1777982790 | 3.33° C | 93% | 1013 hPa | 6.1 mm | 5.81 m/s, 86° | 121 W/m² | - |
| 1777982495 | 3.33° C | 93% | 1012.8 hPa | 6.1 mm | 5.36 m/s, 20° | 132 W/m² | - |
| 1777982199 | 3.33° C | 93% | 1012.9 hPa | 5.08 mm | 5.36 m/s, 61° | 156 W/m² | - |
| 1777981884 | 3.33° C | 92% | 1013 hPa | 6.1 mm | 6.26 m/s, 112° | 128 W/m² | - |
| 1777981590 | 3.33° C | 92% | 1012.9 hPa | 5.08 mm | 6.71 m/s, 101° | 167 W/m² | - |
| 1777981295 | 3.33° C | 92% | 1012.8 hPa | 6.1 mm | 8.05 m/s, 70° | 185 W/m² | - |
| 1777980985 | 3.33° C | 93% | 1012.8 hPa | 5.08 mm | 5.36 m/s, 93° | 200 W/m² | - |
| 1777980690 | 3.33° C | 93% | 1013 hPa | 6.1 mm | 4.92 m/s, 103° | 192 W/m² | - |
| 1777980395 | 3.33° C | 93% | 1013 hPa | 6.1 mm | 4.02 m/s, 319° | 207 W/m² | - |
| 1777980099 | 3.33° C | 93% | 1012.8 hPa | 6.1 mm | 4.47 m/s, 327° | 241 W/m² | - |
| 1777979783 | 3.33° C | 93% | 1012.8 hPa | 7.11 mm | 4.92 m/s, 47° | 306 W/m² | - |
| 1777979489 | 3.33° C | 92% | 1012.7 hPa | 7.87 mm | 4.47 m/s, 338° | 281 W/m² | - |
| 1777979192 | 3.33° C | 92% | 1012.9 hPa | 7.11 mm | 4.02 m/s, 273° | 260 W/m² | - |
| 1777978896 | 3.33° C | 91% | 1013 hPa | 7.11 mm | 4.47 m/s, 101° | 267 W/m² | - |
| 1777978601 | 3.33° C | 91% | 1013 hPa | 7.87 mm | 6.71 m/s, 63° | 229 W/m² | - |
| 1777978286 | 3.33° C | 91% | 1012.7 hPa | 7.11 mm | 7.15 m/s, 107° | 279 W/m² | - |
| 1777977990 | 2.78° C | 91% | 1012.8 hPa | 7.11 mm | 6.26 m/s, 64° | 232 W/m² | - |
| 1777977699 | 2.78° C | 91% | 1012.7 hPa | 8.89 mm | 8.49 m/s, 154° | 211 W/m² | - |
| 1777977383 | 2.78° C | 92% | 1012.6 hPa | 9.91 mm | 8.05 m/s, 90° | 192 W/m² | - |
| 1777977086 | 2.78° C | 91% | 1012.8 hPa | 8.89 mm | 5.81 m/s, 117° | 232 W/m² | - |
| 1777976790 | 2.78° C | 91% | 1013 hPa | 8.89 mm | 4.47 m/s, 40° | 199 W/m² | - |
| 1777976495 | 2.78° C | 90% | 1013.1 hPa | 8.89 mm | 5.36 m/s, 43° | 146 W/m² | - |
| 1777976201 | 3.33° C | 89% | 1012.9 hPa | 7.87 mm | 4.47 m/s, 274° | 125 W/m² | - |
| 1777975885 | 3.33° C | 90% | 1012.9 hPa | 7.87 mm | 4.47 m/s, 83° | 139 W/m² | - |
* Rain latest hour (hover to see other rain measurements)
** Current wind speed in m/s (hover to see current wind gust speed)